createdAt,value
2019-03-10T00:00:03.207Z,33.70
2019-03-10T00:01:03.207Z,35.90
2019-03-10T00:02:03.199Z,31.10
2019-03-10T00:03:03.205Z,29.50
2019-03-10T00:04:03.200Z,25.90
2019-03-10T00:05:03.181Z,24.40
2019-03-10T00:06:03.182Z,30.70
2019-03-10T00:07:03.205Z,27.30
2019-03-10T00:08:03.188Z,33.00
2019-03-10T00:09:03.161Z,30.70
2019-03-10T00:10:03.161Z,33.40
2019-03-10T00:11:03.435Z,26.30
2019-03-10T00:12:03.150Z,32.00
2019-03-10T00:13:03.154Z,34.50
2019-03-10T00:14:03.148Z,29.50
2019-03-10T00:15:03.129Z,32.90
2019-03-10T00:16:03.129Z,33.50
2019-03-10T00:17:03.121Z,27.30
2019-03-10T00:18:03.116Z,32.00
2019-03-10T00:19:03.109Z,27.30
2019-03-10T00:20:03.109Z,30.70
2019-03-10T00:21:03.124Z,29.60
2019-03-10T00:22:03.301Z,32.40
2019-03-10T00:23:03.298Z,33.30
2019-03-10T00:24:03.093Z,30.50
2019-03-10T00:25:03.095Z,29.40
2019-03-10T00:26:03.071Z,31.70
2019-03-10T00:27:03.280Z,29.20
2019-03-10T00:28:03.281Z,29.10
2019-03-10T00:29:03.263Z,32.30
2019-03-10T00:30:03.057Z,33.10
2019-03-10T00:31:03.047Z,32.50
2019-03-10T00:32:03.268Z,28.50
2019-03-10T00:33:03.053Z,29.80
2019-03-10T00:34:03.038Z,28.60
2019-03-10T00:35:03.025Z,28.60
2019-03-10T00:36:03.018Z,30.00
2019-03-10T00:37:03.023Z,32.20
2019-03-10T00:38:03.011Z,28.40
2019-03-10T00:39:03.009Z,29.90
2019-03-10T00:40:03.012Z,29.90
2019-03-10T00:41:03.001Z,27.70
2019-03-10T00:42:02.997Z,27.80
2019-03-10T00:43:02.994Z,29.50
2019-03-10T00:44:02.996Z,27.40
2019-03-10T00:45:02.977Z,29.20
2019-03-10T00:46:02.980Z,28.40
2019-03-10T00:47:02.987Z,27.20
2019-03-10T00:48:02.957Z,29.00
2019-03-10T00:49:02.966Z,30.30
2019-03-10T00:50:02.951Z,27.00
2019-03-10T00:51:02.966Z,30.60
2019-03-10T00:52:02.965Z,30.20
2019-03-10T00:53:02.937Z,30.10
2019-03-10T00:54:02.927Z,32.80
2019-03-10T00:55:03.135Z,31.30
2019-03-10T00:56:02.918Z,25.40
2019-03-10T00:57:03.122Z,32.10
2019-03-10T00:58:02.908Z,28.80
2019-03-10T00:59:02.904Z,32.10
2019-03-10T01:00:02.906Z,29.80
2019-03-10T01:01:03.096Z,28.90
2019-03-10T01:02:03.104Z,25.10
2019-03-10T01:03:02.890Z,26.50
2019-03-10T01:04:02.875Z,27.00
2019-03-10T01:05:02.880Z,32.50
2019-03-10T01:06:02.896Z,26.90
2019-03-10T01:07:02.866Z,27.80
2019-03-10T01:08:02.854Z,30.80
2019-03-10T01:09:02.849Z,23.90
2019-03-10T01:10:02.852Z,27.30
2019-03-10T01:11:02.837Z,29.10
2019-03-10T01:12:02.836Z,27.50
2019-03-10T01:13:02.825Z,28.80
2019-03-10T01:14:02.817Z,27.00
2019-03-10T01:15:02.829Z,22.80
2019-03-10T01:16:02.836Z,31.10
2019-03-10T01:17:03.009Z,25.10
2019-03-10T01:18:02.797Z,24.90
2019-03-10T01:19:02.801Z,28.80
2019-03-10T01:20:02.783Z,25.40
2019-03-10T01:21:02.787Z,28.00
2019-03-10T01:22:02.775Z,27.50
2019-03-10T01:23:02.980Z,28.00
2019-03-10T01:24:02.768Z,26.70
2019-03-10T01:25:02.795Z,27.40
2019-03-10T01:26:02.762Z,26.50
2019-03-10T01:27:02.759Z,22.80
2019-03-10T01:28:02.742Z,29.80
2019-03-10T01:29:02.945Z,26.30
2019-03-10T01:30:02.740Z,27.50
2019-03-10T01:31:02.731Z,28.00
2019-03-10T01:32:02.927Z,24.40
2019-03-10T01:33:02.730Z,26.20
2019-03-10T01:34:02.919Z,23.60
2019-03-10T01:35:02.707Z,29.80
2019-03-10T01:36:02.711Z,24.70
2019-03-10T01:37:02.903Z,26.10
2019-03-10T01:38:02.696Z,24.40
2019-03-10T01:39:02.699Z,28.10
2019-03-10T01:40:02.883Z,26.20
2019-03-10T01:41:02.888Z,29.20
2019-03-10T01:42:02.890Z,31.00
2019-03-10T01:43:02.671Z,25.90
2019-03-10T01:44:02.663Z,26.90
2019-03-10T01:45:02.659Z,23.60
2019-03-10T01:46:02.649Z,29.60
2019-03-10T01:47:02.928Z,23.30
2019-03-10T01:48:02.657Z,22.00
2019-03-10T01:49:02.640Z,24.80
2019-03-10T01:50:02.832Z,26.50
2019-03-10T01:51:02.833Z,27.00
2019-03-10T01:52:02.617Z,26.00
2019-03-10T01:53:02.619Z,25.40
2019-03-10T01:54:02.633Z,26.20
2019-03-10T01:55:02.610Z,23.00
2019-03-10T01:56:02.817Z,22.10
2019-03-10T01:57:02.593Z,19.70
2019-03-10T01:58:02.591Z,24.60
2019-03-10T01:59:02.589Z,24.60
2019-03-10T02:00:02.579Z,23.40
2019-03-10T02:01:02.573Z,26.50
2019-03-10T02:02:02.569Z,24.90
2019-03-10T02:03:02.570Z,25.60
2019-03-10T02:04:02.553Z,22.20
2019-03-10T02:05:02.549Z,27.80
2019-03-10T02:06:02.571Z,24.80
2019-03-10T02:07:02.541Z,23.50
2019-03-10T02:08:02.551Z,20.00
2019-03-10T02:09:02.532Z,25.30
2019-03-10T02:10:02.550Z,23.70
2019-03-10T02:11:02.522Z,21.50
2019-03-10T02:12:02.515Z,25.50
2019-03-10T02:13:02.525Z,27.30
2019-03-10T02:14:02.534Z,27.50
2019-03-10T02:15:02.514Z,29.80
2019-03-10T02:16:02.511Z,25.20
2019-03-10T02:17:02.491Z,21.50
2019-03-10T02:18:02.494Z,23.30
2019-03-10T02:19:02.487Z,22.90
2019-03-10T02:20:02.493Z,26.50
2019-03-10T02:21:02.483Z,21.20
2019-03-10T02:22:02.471Z,19.40
2019-03-10T02:23:02.674Z,23.10
2019-03-10T02:24:02.655Z,27.50
2019-03-10T02:25:02.451Z,22.30
2019-03-10T02:26:02.450Z,23.40
2019-03-10T02:27:02.441Z,26.40
2019-03-10T02:28:02.647Z,28.70
2019-03-10T02:29:02.628Z,27.30
2019-03-10T02:30:02.433Z,26.20
2019-03-10T02:31:02.418Z,27.70
2019-03-10T02:32:02.673Z,25.40
2019-03-10T02:33:02.416Z,23.50
2019-03-10T02:34:02.430Z,26.70
2019-03-10T02:35:02.597Z,27.80
2019-03-10T02:36:02.408Z,24.90
2019-03-10T02:37:02.591Z,25.80
2019-03-10T02:38:02.583Z,24.40
2019-03-10T02:39:02.398Z,24.20
2019-03-10T02:40:02.400Z,24.50
2019-03-10T02:41:02.366Z,23.70
2019-03-10T02:42:02.578Z,27.00
2019-03-10T02:43:02.375Z,25.80
2019-03-10T02:44:02.349Z,24.10
2019-03-10T02:45:02.349Z,19.90
2019-03-10T02:46:02.554Z,24.30
2019-03-10T02:47:02.345Z,22.50
2019-03-10T02:48:02.341Z,23.90
2019-03-10T02:49:02.529Z,25.30
2019-03-10T02:50:02.325Z,23.90
2019-03-10T02:51:02.538Z,30.80
2019-03-10T02:52:02.309Z,24.40
2019-03-10T02:53:02.311Z,26.10
2019-03-10T02:54:02.317Z,25.90
2019-03-10T02:55:02.299Z,25.00
2019-03-10T02:56:02.303Z,22.50
2019-03-10T02:57:02.278Z,27.50
2019-03-10T02:58:02.294Z,25.50
2019-03-10T02:59:02.493Z,24.60
2019-03-10T03:00:02.270Z,20.90
2019-03-10T03:01:02.259Z,26.60
2019-03-10T03:02:02.265Z,24.50
2019-03-10T03:03:02.457Z,28.10
2019-03-10T03:04:02.261Z,28.00
2019-03-10T03:05:02.247Z,27.40
2019-03-10T03:06:02.439Z,26.10
2019-03-10T03:07:02.229Z,23.50
2019-03-10T03:08:02.231Z,24.50
2019-03-10T03:09:02.435Z,22.40
2019-03-10T03:10:02.428Z,27.30
2019-03-10T03:11:02.223Z,28.70
2019-03-10T03:12:02.216Z,24.70
2019-03-10T03:13:02.196Z,30.90
2019-03-10T03:14:02.202Z,26.00
2019-03-10T03:15:02.398Z,18.70
2019-03-10T03:16:02.184Z,24.60
2019-03-10T03:17:02.387Z,24.10
2019-03-10T03:18:02.186Z,28.30
2019-03-10T03:19:02.201Z,24.20
2019-03-10T03:20:02.172Z,28.10
2019-03-10T03:21:02.382Z,27.90
2019-03-10T03:22:02.354Z,26.50
2019-03-10T03:23:02.381Z,22.60
2019-03-10T03:24:02.159Z,23.40
2019-03-10T03:25:02.342Z,27.30
2019-03-10T03:26:02.131Z,27.00
2019-03-10T03:27:02.669Z,29.60
2019-03-10T03:28:02.328Z,28.40
2019-03-10T03:29:02.134Z,30.20
2019-03-10T03:30:02.330Z,25.90
2019-03-10T03:31:02.152Z,26.40
2019-03-10T03:32:02.106Z,25.90
2019-03-10T03:33:02.163Z,28.20
2019-03-10T03:34:02.092Z,24.40
2019-03-10T03:35:02.111Z,22.30
2019-03-10T03:36:02.082Z,22.20
2019-03-10T03:37:02.083Z,21.80
2019-03-10T03:38:02.102Z,34.80
2019-03-10T03:39:02.067Z,25.20
2019-03-10T03:40:02.062Z,24.90
2019-03-10T03:41:02.275Z,28.00
2019-03-10T03:42:02.075Z,27.50
2019-03-10T03:43:02.263Z,25.40
2019-03-10T03:44:02.103Z,24.70
2019-03-10T03:45:02.047Z,30.50
2019-03-10T03:46:02.062Z,24.90
2019-03-10T03:47:02.061Z,30.20
2019-03-10T03:48:02.032Z,27.00
2019-03-10T03:49:02.035Z,30.00
2019-03-10T03:50:02.011Z,28.20
2019-03-10T03:51:02.012Z,26.50
2019-03-10T03:52:01.998Z,24.70
2019-03-10T03:53:02.205Z,27.00
2019-03-10T03:54:01.990Z,28.10
2019-03-10T03:55:01.981Z,27.30
2019-03-10T03:56:02.193Z,23.70
2019-03-10T03:57:01.970Z,28.70
2019-03-10T03:58:01.970Z,24.00
2019-03-10T03:59:01.966Z,25.90
2019-03-10T04:00:01.959Z,28.50
2019-03-10T04:01:01.956Z,25.40
2019-03-10T04:02:01.969Z,28.40
2019-03-10T04:03:01.947Z,26.50
2019-03-10T04:04:02.159Z,24.20
2019-03-10T04:05:02.004Z,26.10
2019-03-10T04:06:02.133Z,26.40
2019-03-10T04:07:01.937Z,25.50
2019-03-10T04:08:02.117Z,26.70
2019-03-10T04:10:02.113Z,24.00
2019-03-10T04:11:01.906Z,25.10
2019-03-10T04:12:01.908Z,22.90
2019-03-10T04:13:01.895Z,27.20
2019-03-10T04:14:01.887Z,24.50
2019-03-10T04:15:01.893Z,24.40
2019-03-10T04:16:01.878Z,24.10
2019-03-10T04:17:01.868Z,21.20
2019-03-10T04:18:02.064Z,25.40
2019-03-10T04:19:02.067Z,30.60
2019-03-10T04:20:01.881Z,26.00
2019-03-10T04:21:01.858Z,25.40
2019-03-10T04:22:02.047Z,27.10
2019-03-10T04:23:01.833Z,24.90
2019-03-10T04:24:01.839Z,24.70
2019-03-10T04:25:01.824Z,21.20
2019-03-10T04:26:01.826Z,19.20
2019-03-10T04:27:01.817Z,21.90
2019-03-10T04:28:01.810Z,22.00
2019-03-10T04:29:01.803Z,22.30
2019-03-10T04:30:01.813Z,18.10
2019-03-10T04:31:01.813Z,20.70
2019-03-10T04:32:01.794Z,19.00
2019-03-10T04:33:01.981Z,18.90
2019-03-10T04:34:01.846Z,25.30
2019-03-10T04:35:01.766Z,24.30
2019-03-10T04:36:01.762Z,21.90
2019-03-10T04:37:01.963Z,21.20
2019-03-10T04:38:01.772Z,21.30
2019-03-10T04:39:01.961Z,19.70
2019-03-10T04:40:01.962Z,14.20
2019-03-10T04:41:01.760Z,15.90
2019-03-10T04:42:01.737Z,20.40
2019-03-10T04:43:01.729Z,18.00
2019-03-10T04:44:01.724Z,21.10
2019-03-10T04:45:01.736Z,15.70
2019-03-10T04:46:01.730Z,18.10
2019-03-10T04:47:01.720Z,20.70
2019-03-10T04:48:01.708Z,20.10
2019-03-10T04:49:01.710Z,17.00
2019-03-10T04:50:01.898Z,21.00
2019-03-10T04:51:01.692Z,21.60
2019-03-10T04:52:01.686Z,19.30
2019-03-10T04:53:01.889Z,20.50
2019-03-10T04:54:01.694Z,21.20
2019-03-10T04:55:01.666Z,16.00
2019-03-10T04:56:01.672Z,17.70
2019-03-10T04:57:01.663Z,21.50
2019-03-10T04:58:01.644Z,16.80
2019-03-10T04:59:01.656Z,19.90
2019-03-10T05:00:01.637Z,15.70
2019-03-10T05:01:01.647Z,20.60
2019-03-10T05:02:01.626Z,19.40
2019-03-10T05:03:01.625Z,16.20
2019-03-10T05:04:01.613Z,23.90
2019-03-10T05:05:01.617Z,15.10
2019-03-10T05:06:01.614Z,15.30
2019-03-10T05:07:01.610Z,18.20
2019-03-10T05:08:01.608Z,16.70
2019-03-10T05:09:01.610Z,15.20
2019-03-10T05:10:01.586Z,21.10
2019-03-10T05:11:01.580Z,18.80
2019-03-10T05:12:01.588Z,17.60
2019-03-10T05:13:01.569Z,14.80
2019-03-10T05:14:01.560Z,17.10
2019-03-10T05:15:01.591Z,16.60
2019-03-10T05:16:01.565Z,19.50
2019-03-10T05:17:01.552Z,16.00
2019-03-10T05:18:01.536Z,18.80
2019-03-10T05:19:01.735Z,18.80
2019-03-10T05:20:01.542Z,21.50
2019-03-10T05:21:01.720Z,17.70
2019-03-10T05:22:01.530Z,16.30
2019-03-10T05:23:01.532Z,17.50
2019-03-10T05:24:01.504Z,17.30
2019-03-10T05:25:01.498Z,17.00
2019-03-10T05:26:01.496Z,18.70
2019-03-10T05:27:01.490Z,20.00
2019-03-10T05:28:01.481Z,18.70
2019-03-10T05:29:01.478Z,17.60
2019-03-10T05:30:01.492Z,17.00
2019-03-10T05:31:01.462Z,14.80
2019-03-10T05:32:01.488Z,16.50
2019-03-10T05:33:01.459Z,15.80
2019-03-10T05:34:01.454Z,15.50
2019-03-10T05:35:01.445Z,14.40
2019-03-10T05:36:01.438Z,15.10
2019-03-10T05:37:01.451Z,12.00
2019-03-10T05:38:01.441Z,15.60
2019-03-10T05:39:01.422Z,17.80
2019-03-10T05:40:01.426Z,20.50
2019-03-10T05:41:01.413Z,16.00
2019-03-10T05:42:01.417Z,18.80
2019-03-10T05:43:01.397Z,13.90
2019-03-10T05:44:01.402Z,15.70
2019-03-10T05:45:01.426Z,18.30
2019-03-10T05:46:01.379Z,13.20
2019-03-10T05:47:01.389Z,17.00
2019-03-10T05:48:01.367Z,14.20
2019-03-10T05:49:01.432Z,13.60
2019-03-10T05:50:01.433Z,19.40
2019-03-10T05:51:01.351Z,19.80
2019-03-10T05:52:01.360Z,16.40
2019-03-10T05:53:01.353Z,17.30
2019-03-10T05:54:01.341Z,19.90
2019-03-10T05:55:01.341Z,15.10
2019-03-10T05:56:01.322Z,18.70
2019-03-10T05:57:01.324Z,18.80
2019-03-10T05:58:01.315Z,18.80
2019-03-10T05:59:01.310Z,16.70
2019-03-10T06:00:01.317Z,14.20
2019-03-10T06:01:01.301Z,19.30
2019-03-10T06:02:01.291Z,17.40
2019-03-10T06:03:01.290Z,20.30
2019-03-10T06:04:01.298Z,17.30
2019-03-10T06:05:01.479Z,16.20
2019-03-10T06:06:01.273Z,16.20
2019-03-10T06:07:01.261Z,17.10
2019-03-10T06:08:01.249Z,17.50
2019-03-10T06:09:01.261Z,19.50
2019-03-10T06:10:01.251Z,16.90
2019-03-10T06:11:01.235Z,17.20
2019-03-10T06:12:01.438Z,16.20
2019-03-10T06:13:01.250Z,15.80
2019-03-10T06:14:01.236Z,18.10
2019-03-10T06:15:01.217Z,17.70
2019-03-10T06:16:01.221Z,17.50
2019-03-10T06:17:01.207Z,20.10
2019-03-10T06:18:01.400Z,16.40
2019-03-10T06:19:01.213Z,16.50
2019-03-10T06:20:01.178Z,15.90
2019-03-10T06:21:01.180Z,15.40
2019-03-10T06:22:01.187Z,16.20
2019-03-10T06:23:01.187Z,12.30
2019-03-10T06:24:01.164Z,14.70
2019-03-10T06:25:01.157Z,14.00
2019-03-10T06:26:01.147Z,18.40
2019-03-10T06:27:01.141Z,14.40
2019-03-10T06:28:01.139Z,17.00
2019-03-10T06:29:01.137Z,13.80
2019-03-10T06:30:01.127Z,13.70
2019-03-10T06:31:01.117Z,11.00
2019-03-10T06:32:01.120Z,13.40
2019-03-10T06:33:01.111Z,14.10
2019-03-10T06:34:01.108Z,10.30
2019-03-10T06:35:01.102Z,12.80
2019-03-10T06:36:01.292Z,13.50
2019-03-10T06:37:01.083Z,13.90
2019-03-10T06:38:01.285Z,11.70
2019-03-10T06:39:01.066Z,15.30
2019-03-10T06:40:01.063Z,9.30
2019-03-10T06:41:01.068Z,14.00
2019-03-10T06:42:01.054Z,11.00
2019-03-10T06:43:01.251Z,10.00
2019-03-10T06:44:01.045Z,12.10
2019-03-10T06:45:01.044Z,13.90
2019-03-10T06:46:01.027Z,12.20
2019-03-10T06:47:01.038Z,10.00
2019-03-10T06:48:01.018Z,12.00
2019-03-10T06:49:01.016Z,13.00
2019-03-10T06:50:01.014Z,12.50
2019-03-10T06:51:00.995Z,10.70
2019-03-10T06:52:00.985Z,11.40
2019-03-10T06:53:00.982Z,12.10
2019-03-10T06:54:00.979Z,8.80
2019-03-10T06:55:00.985Z,9.10
2019-03-10T06:56:01.189Z,12.00
2019-03-10T06:57:00.958Z,9.70
2019-03-10T06:58:00.947Z,13.10
2019-03-10T06:59:00.964Z,9.80
2019-03-10T07:00:00.946Z,9.60
2019-03-10T07:01:00.928Z,10.60
2019-03-10T07:02:00.937Z,10.50
2019-03-10T07:03:00.914Z,10.10
2019-03-10T07:04:00.921Z,10.30
2019-03-10T07:05:01.117Z,9.40
2019-03-10T07:06:01.111Z,9.70
2019-03-10T07:07:00.888Z,13.10
2019-03-10T07:08:00.883Z,8.60
2019-03-10T07:09:00.879Z,10.10
2019-03-10T07:10:00.875Z,11.30
2019-03-10T07:11:01.084Z,12.10
2019-03-10T07:12:00.870Z,8.10
2019-03-10T07:13:00.872Z,10.70
2019-03-10T07:14:00.851Z,11.50
2019-03-10T07:15:00.840Z,13.00
2019-03-10T07:16:00.852Z,8.60
2019-03-10T07:17:00.837Z,11.00
2019-03-10T07:18:00.844Z,8.80
2019-03-10T07:19:00.828Z,8.90
2019-03-10T07:20:00.825Z,8.20
2019-03-10T07:21:01.027Z,9.40
2019-03-10T07:22:00.798Z,8.30
2019-03-10T07:23:00.991Z,10.90
2019-03-10T07:24:00.796Z,8.20
2019-03-10T07:25:00.788Z,11.10
2019-03-10T07:26:00.767Z,8.60
2019-03-10T07:27:02.282Z,11.20
2019-03-10T07:28:00.764Z,10.60
2019-03-10T07:29:00.749Z,12.40
2019-03-10T07:30:00.753Z,7.50
2019-03-10T07:31:00.736Z,12.80
2019-03-10T07:32:00.746Z,11.70
2019-03-10T07:33:00.936Z,11.10
2019-03-10T07:34:00.730Z,9.30
2019-03-10T07:35:00.910Z,8.60
2019-03-10T07:36:00.718Z,8.60
2019-03-10T07:37:00.708Z,9.30
2019-03-10T07:38:00.696Z,8.60
2019-03-10T07:39:00.684Z,9.90
2019-03-10T07:40:00.701Z,10.60
2019-03-10T07:41:00.683Z,10.00
2019-03-10T07:42:00.663Z,7.70
2019-03-10T07:43:00.667Z,9.70
2019-03-10T07:44:00.650Z,7.50
2019-03-10T07:45:00.648Z,7.00
2019-03-10T07:46:00.635Z,7.30
2019-03-10T07:47:00.656Z,10.20
2019-03-10T07:48:00.624Z,8.60
2019-03-10T07:49:00.619Z,8.00
2019-03-10T07:50:00.634Z,6.60
2019-03-10T07:51:00.611Z,9.20
2019-03-10T07:52:00.616Z,10.50
2019-03-10T07:53:00.597Z,9.70
2019-03-10T07:54:00.587Z,5.90
2019-03-10T07:55:00.670Z,8.60
2019-03-10T07:56:00.775Z,6.90
2019-03-10T07:57:00.772Z,9.60
2019-03-10T07:58:00.585Z,6.50
2019-03-10T07:59:00.755Z,8.10
2019-03-10T08:00:00.554Z,10.30
2019-03-10T08:01:00.569Z,8.20
2019-03-10T08:02:00.553Z,12.90
2019-03-10T08:03:00.817Z,7.10
2019-03-10T08:04:00.736Z,7.30
2019-03-10T08:05:00.518Z,9.90
2019-03-10T08:06:00.523Z,10.70
2019-03-10T08:07:00.505Z,11.70
2019-03-10T08:08:00.731Z,11.40
2019-03-10T08:09:00.703Z,9.10
2019-03-10T08:10:00.626Z,10.00
2019-03-10T08:11:00.491Z,11.20
2019-03-10T08:12:00.472Z,7.70
2019-03-10T08:13:00.466Z,8.40
2019-03-10T08:14:00.461Z,6.00
2019-03-10T08:15:00.462Z,7.50
2019-03-10T08:16:00.479Z,8.30
2019-03-10T08:17:00.457Z,9.30
2019-03-10T08:18:00.657Z,10.50
2019-03-10T08:19:00.427Z,7.40
2019-03-10T08:20:00.641Z,9.20
2019-03-10T08:21:00.412Z,9.20
2019-03-10T08:22:00.649Z,10.30
2019-03-10T08:23:00.425Z,8.70
2019-03-10T08:24:00.409Z,10.30
2019-03-10T08:25:00.409Z,9.20
2019-03-10T08:26:00.613Z,10.20
2019-03-10T08:27:00.598Z,11.60
2019-03-10T08:28:01.976Z,10.00
2019-03-10T08:29:00.363Z,10.60
2019-03-10T08:30:00.406Z,13.30
2019-03-10T08:31:00.355Z,8.70
2019-03-10T08:32:00.358Z,12.20
2019-03-10T08:33:00.352Z,15.10
2019-03-10T08:34:00.342Z,12.20
2019-03-10T08:35:00.349Z,12.80
2019-03-10T08:36:00.322Z,9.60
2019-03-10T08:37:00.320Z,11.30
2019-03-10T08:38:00.533Z,9.70
2019-03-10T08:39:00.317Z,10.60
2019-03-10T08:40:00.386Z,11.50
2019-03-10T08:41:00.296Z,11.00
2019-03-10T08:42:00.294Z,11.40
2019-03-10T08:43:00.489Z,10.40
2019-03-10T08:44:00.290Z,8.30
2019-03-10T08:45:00.468Z,13.40
2019-03-10T08:46:00.274Z,8.70
2019-03-10T08:47:00.270Z,11.70
2019-03-10T08:48:00.251Z,11.90
2019-03-10T08:49:00.473Z,15.90
2019-03-10T08:50:00.308Z,10.90
2019-03-10T08:51:00.233Z,11.20
2019-03-10T08:52:00.236Z,12.00
2019-03-10T08:53:00.444Z,13.00
2019-03-10T08:54:00.229Z,15.90
2019-03-10T08:55:00.419Z,10.00
2019-03-10T08:56:00.206Z,17.80
2019-03-10T08:57:00.208Z,12.30
2019-03-10T08:58:00.196Z,11.90
2019-03-10T08:59:00.408Z,14.90
2019-03-10T09:00:00.364Z,13.10
2019-03-10T09:01:00.382Z,14.60
2019-03-10T09:02:00.404Z,18.40
2019-03-10T09:03:00.175Z,15.60
2019-03-10T09:04:00.509Z,14.10
2019-03-10T09:05:00.330Z,16.70
2019-03-10T09:06:00.150Z,11.90
2019-03-10T09:07:00.145Z,15.20
2019-03-10T09:08:00.137Z,13.80
2019-03-10T09:09:00.185Z,17.80
2019-03-10T09:10:00.336Z,16.80
2019-03-10T09:11:00.125Z,14.40
2019-03-10T09:12:00.133Z,13.90
2019-03-10T09:13:00.109Z,12.70
2019-03-10T09:14:00.121Z,13.00
2019-03-10T09:15:00.364Z,14.30
2019-03-10T09:16:00.094Z,14.60
2019-03-10T09:17:00.103Z,16.30
2019-03-10T09:18:00.117Z,14.50
2019-03-10T09:19:00.099Z,15.10
2019-03-10T09:20:00.195Z,13.50
2019-03-10T09:21:00.086Z,16.60
2019-03-10T09:22:00.392Z,14.40
2019-03-10T09:23:00.062Z,17.50
2019-03-10T09:24:00.048Z,15.80
2019-03-10T09:25:00.047Z,19.30
2019-03-10T09:26:00.246Z,17.80
2019-03-10T09:27:00.040Z,18.50
2019-03-10T09:28:00.028Z,17.70
2019-03-10T09:29:00.023Z,18.60
2019-03-10T09:30:00.033Z,14.70
2019-03-10T09:31:00.013Z,15.80
2019-03-10T09:32:00.039Z,14.80
2019-03-10T09:33:00.039Z,17.10
2019-03-10T09:33:59.993Z,16.90
2019-03-10T09:35:00.004Z,13.90
2019-03-10T09:35:59.988Z,15.50
2019-03-10T09:37:00.011Z,14.00
2019-03-10T09:38:00.212Z,17.60
2019-03-10T09:39:00.172Z,19.40
2019-03-10T09:39:59.971Z,17.40
2019-03-10T09:40:59.956Z,16.00
2019-03-10T09:41:59.988Z,18.90
2019-03-10T09:43:00.166Z,16.50
2019-03-10T09:44:00.195Z,17.30
2019-03-10T09:45:00.290Z,16.50
2019-03-10T09:45:59.937Z,17.30
2019-03-10T09:46:59.937Z,15.80
2019-03-10T09:47:59.943Z,16.30
2019-03-10T09:49:00.121Z,14.50
2019-03-10T09:49:59.925Z,13.90
2019-03-10T09:50:59.920Z,18.10
2019-03-10T09:51:59.905Z,14.10
2019-03-10T09:52:59.912Z,10.00
2019-03-10T09:54:00.112Z,12.70
2019-03-10T09:55:01.069Z,8.80
2019-03-10T09:55:59.881Z,5.30
2019-03-10T09:56:59.886Z,6.30
2019-03-10T09:57:59.875Z,6.50
2019-03-10T09:58:59.883Z,3.40
2019-03-10T09:59:59.865Z,5.00
2019-03-10T10:00:59.857Z,3.90
2019-03-10T10:02:00.052Z,3.70
2019-03-10T10:02:59.847Z,3.00
2019-03-10T10:03:59.852Z,4.80
2019-03-10T10:04:59.835Z,4.80
2019-03-10T10:06:00.047Z,4.60
2019-03-10T10:07:00.044Z,4.10
2019-03-10T10:07:59.833Z,4.20
2019-03-10T10:08:59.817Z,5.80
2019-03-10T10:09:59.814Z,4.90
2019-03-10T10:10:59.811Z,6.30
2019-03-10T10:11:59.802Z,4.40
2019-03-10T10:12:59.817Z,4.10
2019-03-10T10:13:59.803Z,5.30
2019-03-10T10:14:59.788Z,3.40
2019-03-10T10:15:59.987Z,5.10
2019-03-10T10:16:59.793Z,3.40
2019-03-10T10:17:59.781Z,5.80
2019-03-10T10:18:59.786Z,3.80
2019-03-10T10:19:59.760Z,6.50
2019-03-10T10:20:59.758Z,6.70
2019-03-10T10:21:59.764Z,7.30
2019-03-10T10:22:59.750Z,5.30
2019-03-10T10:23:59.754Z,8.30
2019-03-10T10:24:59.938Z,6.00
2019-03-10T10:25:59.731Z,6.30
2019-03-10T10:26:59.941Z,5.70
2019-03-10T10:27:59.732Z,6.00
2019-03-10T10:28:59.714Z,8.50
2019-03-10T10:29:59.723Z,6.90
2019-03-10T10:30:59.731Z,6.00
2019-03-10T10:31:59.905Z,5.10
2019-03-10T10:32:59.699Z,6.40
2019-03-10T10:33:59.717Z,4.80
2019-03-10T10:34:59.763Z,7.00
2019-03-10T10:35:59.681Z,6.10
2019-03-10T10:36:59.685Z,7.60
2019-03-10T10:37:59.680Z,7.30
2019-03-10T10:38:59.674Z,5.70
2019-03-10T10:39:59.666Z,5.50
2019-03-10T10:40:59.661Z,9.40
2019-03-10T10:41:59.659Z,5.30
2019-03-10T10:42:59.652Z,7.80
2019-03-10T10:43:59.658Z,8.40
2019-03-10T10:44:59.844Z,7.40
2019-03-10T10:45:59.632Z,9.40
2019-03-10T10:46:59.634Z,12.60
2019-03-10T10:47:59.632Z,7.60
2019-03-10T10:48:59.621Z,9.50
2019-03-10T10:49:59.623Z,9.90
2019-03-10T10:50:59.857Z,9.20
2019-03-10T10:51:59.623Z,8.70
2019-03-10T10:52:59.608Z,12.50
2019-03-10T10:53:59.818Z,8.90
2019-03-10T10:54:59.610Z,9.80
2019-03-10T10:55:59.603Z,9.10
2019-03-10T10:56:59.597Z,11.40
2019-03-10T10:57:59.792Z,8.40
2019-03-10T10:58:59.593Z,11.10
2019-03-10T10:59:59.567Z,9.00
2019-03-10T11:00:59.579Z,10.80
2019-03-10T11:01:59.770Z,10.30
2019-03-10T11:02:59.583Z,10.50
2019-03-10T11:03:59.563Z,7.00
2019-03-10T11:04:59.551Z,10.30
2019-03-10T11:05:59.542Z,11.10
2019-03-10T11:06:59.548Z,10.70
2019-03-10T11:07:59.549Z,10.30
2019-03-10T11:08:59.531Z,9.80
2019-03-10T11:09:59.532Z,10.80
2019-03-10T11:10:59.533Z,11.40
2019-03-10T11:11:59.551Z,11.00
2019-03-10T11:12:59.716Z,8.30
2019-03-10T11:13:59.511Z,11.40
2019-03-10T11:14:59.502Z,10.60
2019-03-10T11:15:59.704Z,8.70
2019-03-10T11:16:59.490Z,8.00
2019-03-10T11:18:08.975Z,6.50
2019-03-10T11:18:59.683Z,10.50
2019-03-10T11:19:59.502Z,7.80
2019-03-10T11:20:59.684Z,6.50
2019-03-10T11:21:59.492Z,8.20
2019-03-10T11:22:59.463Z,9.60
2019-03-10T11:23:59.681Z,6.80
2019-03-10T11:24:59.666Z,8.50
2019-03-10T11:25:59.511Z,7.90
2019-03-10T11:26:59.471Z,9.50
2019-03-10T11:27:59.437Z,8.00
2019-03-10T11:29:02.677Z,10.20
2019-03-10T11:29:59.431Z,7.90
2019-03-10T11:30:59.423Z,6.90
2019-03-10T11:31:59.420Z,8.00
2019-03-10T11:32:59.440Z,7.30
2019-03-10T11:33:59.426Z,9.00
2019-03-10T11:34:59.405Z,7.20
2019-03-10T11:35:59.398Z,8.60
2019-03-10T11:36:59.396Z,9.20
2019-03-10T11:37:59.410Z,11.10
2019-03-10T11:38:59.393Z,8.20
2019-03-10T11:39:59.386Z,7.80
2019-03-10T11:40:59.374Z,11.90
2019-03-10T11:41:59.368Z,10.50
2019-03-10T11:42:59.408Z,8.20
2019-03-10T11:43:59.362Z,9.20
2019-03-10T11:44:59.358Z,9.20
2019-03-10T11:45:59.355Z,9.90
2019-03-10T11:46:59.347Z,12.30
2019-03-10T11:47:59.346Z,10.10
2019-03-10T11:48:59.341Z,9.20
2019-03-10T11:49:59.337Z,12.50
2019-03-10T11:50:59.348Z,11.70
2019-03-10T11:51:59.346Z,11.90
2019-03-10T11:52:59.547Z,12.50
2019-03-10T11:53:59.518Z,12.70
2019-03-10T11:54:59.310Z,11.30
2019-03-10T11:55:59.306Z,10.40
2019-03-10T11:56:59.303Z,11.30
2019-03-10T11:57:59.294Z,15.70
2019-03-10T11:58:59.299Z,11.40
2019-03-10T11:59:59.289Z,11.80
2019-03-10T12:00:59.309Z,12.50
2019-03-10T12:01:59.281Z,11.40
2019-03-10T12:02:59.271Z,13.10
2019-03-10T12:03:59.281Z,11.70
2019-03-10T12:04:59.268Z,14.30
2019-03-10T12:05:59.259Z,12.10
2019-03-10T12:06:59.250Z,15.20
2019-03-10T12:07:59.352Z,13.20
2019-03-10T12:08:59.246Z,14.80
2019-03-10T12:09:59.298Z,12.20
2019-03-10T12:10:59.423Z,11.30
2019-03-10T12:11:59.228Z,9.90
2019-03-10T12:12:59.241Z,11.40
2019-03-10T12:13:59.232Z,13.70
2019-03-10T12:14:59.259Z,13.10
2019-03-10T12:15:59.222Z,13.00
2019-03-10T12:16:59.214Z,15.10
2019-03-10T12:17:59.213Z,12.50
2019-03-10T12:18:59.254Z,11.60
2019-03-10T12:19:59.255Z,12.50
2019-03-10T12:20:59.392Z,11.90
2019-03-10T12:21:59.202Z,11.50
2019-03-10T12:22:59.173Z,11.60
2019-03-10T12:23:59.176Z,11.60
2019-03-10T12:24:59.172Z,17.40
2019-03-10T12:25:59.163Z,6.20
2019-03-10T12:26:59.159Z,12.40
2019-03-10T12:27:59.148Z,10.20
2019-03-10T12:28:59.161Z,10.10
2019-03-10T12:29:59.142Z,9.70
2019-03-10T12:30:59.147Z,11.00
2019-03-10T12:31:59.135Z,12.40
2019-03-10T12:32:59.138Z,13.20
2019-03-10T12:33:59.121Z,11.10
2019-03-10T12:34:59.122Z,9.90
2019-03-10T12:35:59.112Z,9.90
2019-03-10T12:36:59.125Z,11.60
2019-03-10T12:37:59.121Z,14.00
2019-03-10T12:38:59.148Z,14.60
2019-03-10T12:39:59.125Z,13.80
2019-03-10T12:40:59.104Z,16.20
2019-03-10T12:41:59.116Z,14.50
2019-03-10T12:42:59.143Z,11.20
2019-03-10T12:43:59.078Z,11.70
2019-03-10T12:44:59.077Z,8.50
2019-03-10T12:45:59.116Z,11.50
2019-03-10T12:46:59.089Z,11.40
2019-03-10T12:47:59.101Z,13.60
2019-03-10T12:48:59.052Z,11.20
2019-03-10T12:49:59.055Z,15.40
2019-03-10T12:50:59.058Z,16.10
2019-03-10T12:51:59.039Z,13.10
2019-03-10T12:52:59.050Z,18.10
2019-03-10T12:53:59.041Z,13.50
2019-03-10T12:54:59.040Z,17.20
2019-03-10T12:55:59.021Z,15.30
2019-03-10T12:56:59.021Z,18.90
2019-03-10T12:57:59.008Z,18.30